sensor_id;sensor_type;location;lat;lon;timestamp;P1;durP1;ratioP1;P2;durP2;ratioP2
51913;SDS011;37940;53.002;6.930;2022-10-16T00:01:04;9.25;;;2.92;;
51913;SDS011;37940;53.002;6.930;2022-10-16T00:03:34;8.43;;;2.60;;
51913;SDS011;37940;53.002;6.930;2022-10-16T00:06:00;8.63;;;2.50;;
51913;SDS011;37940;53.002;6.930;2022-10-16T00:08:26;11.23;;;2.85;;
51913;SDS011;37940;53.002;6.930;2022-10-16T00:10:52;11.23;;;2.92;;
51913;SDS011;37940;53.002;6.930;2022-10-16T00:13:23;11.38;;;3.35;;
51913;SDS011;37940;53.002;6.930;2022-10-16T00:15:49;8.45;;;2.70;;
51913;SDS011;37940;53.002;6.930;2022-10-16T00:18:15;8.60;;;2.92;;
51913;SDS011;37940;53.002;6.930;2022-10-16T00:20:40;12.48;;;3.05;;
51913;SDS011;37940;53.002;6.930;2022-10-16T00:23:06;11.07;;;2.53;;
51913;SDS011;37940;53.002;6.930;2022-10-16T00:25:32;6.97;;;2.80;;
51913;SDS011;37940;53.002;6.930;2022-10-16T00:27:58;11.90;;;2.80;;
51913;SDS011;37940;53.002;6.930;2022-10-16T00:30:25;7.15;;;2.40;;
51913;SDS011;37940;53.002;6.930;2022-10-16T00:32:52;8.98;;;2.58;;
51913;SDS011;37940;53.002;6.930;2022-10-16T00:35:18;11.10;;;2.67;;
51913;SDS011;37940;53.002;6.930;2022-10-16T00:37:44;5.85;;;2.45;;
51913;SDS011;37940;53.002;6.930;2022-10-16T00:40:10;8.75;;;2.45;;
51913;SDS011;37940;53.002;6.930;2022-10-16T00:42:35;7.05;;;2.40;;
51913;SDS011;37940;53.002;6.930;2022-10-16T00:45:01;6.80;;;2.38;;
51913;SDS011;37940;53.002;6.930;2022-10-16T00:47:36;12.18;;;2.67;;
51913;SDS011;37940;53.002;6.930;2022-10-16T00:50:21;8.38;;;2.50;;
51913;SDS011;37940;53.002;6.930;2022-10-16T00:52:48;9.05;;;2.63;;
51913;SDS011;37940;53.002;6.930;2022-10-16T00:55:16;8.10;;;2.70;;
51913;SDS011;37940;53.002;6.930;2022-10-16T00:57:42;7.78;;;2.47;;
51913;SDS011;37940;53.002;6.930;2022-10-16T01:00:09;6.00;;;2.40;;
51913;SDS011;37940;53.002;6.930;2022-10-16T01:02:40;7.78;;;2.40;;
51913;SDS011;37940;53.002;6.930;2022-10-16T01:05:06;11.68;;;2.88;;
51913;SDS011;37940;53.002;6.930;2022-10-16T01:07:56;9.85;;;3.03;;
51913;SDS011;37940;53.002;6.930;2022-10-16T01:15:39;9.13;;;2.63;;
51913;SDS011;37940;53.002;6.930;2022-10-16T01:18:17;9.95;;;2.60;;
51913;SDS011;37940;53.002;6.930;2022-10-16T01:23:27;9.80;;;2.83;;
51913;SDS011;37940;53.002;6.930;2022-10-16T01:29:15;12.07;;;2.85;;
51913;SDS011;37940;53.002;6.930;2022-10-16T01:31:50;7.15;;;2.70;;
51913;SDS011;37940;53.002;6.930;2022-10-16T01:34:25;9.50;;;2.88;;
51913;SDS011;37940;53.002;6.930;2022-10-16T01:37:15;7.63;;;3.00;;
51913;SDS011;37940;53.002;6.930;2022-10-16T01:39:46;8.98;;;2.95;;
51913;SDS011;37940;53.002;6.930;2022-10-16T01:42:17;7.70;;;2.95;;
51913;SDS011;37940;53.002;6.930;2022-10-16T01:44:47;9.07;;;2.92;;
51913;SDS011;37940;53.002;6.930;2022-10-16T01:47:14;7.30;;;3.03;;
51913;SDS011;37940;53.002;6.930;2022-10-16T01:49:42;9.73;;;3.55;;
51913;SDS011;37940;53.002;6.930;2022-10-16T01:52:11;10.80;;;3.33;;
51913;SDS011;37940;53.002;6.930;2022-10-16T01:54:40;9.68;;;3.20;;
51913;SDS011;37940;53.002;6.930;2022-10-16T01:57:10;8.50;;;3.55;;
51913;SDS011;37940;53.002;6.930;2022-10-16T01:59:43;8.45;;;3.47;;
51913;SDS011;37940;53.002;6.930;2022-10-16T02:02:12;9.93;;;3.83;;
51913;SDS011;37940;53.002;6.930;2022-10-16T02:04:44;8.02;;;3.38;;
51913;SDS011;37940;53.002;6.930;2022-10-16T02:07:12;9.70;;;3.53;;
51913;SDS011;37940;53.002;6.930;2022-10-16T02:09:38;7.25;;;3.08;;
51913;SDS011;37940;53.002;6.930;2022-10-16T02:14:55;7.95;;;3.13;;
51913;SDS011;37940;53.002;6.930;2022-10-16T02:17:22;8.07;;;3.22;;
51913;SDS011;37940;53.002;6.930;2022-10-16T02:19:48;6.47;;;3.00;;
51913;SDS011;37940;53.002;6.930;2022-10-16T02:22:18;8.25;;;2.92;;
51913;SDS011;37940;53.002;6.930;2022-10-16T02:27:34;5.38;;;2.72;;
51913;SDS011;37940;53.002;6.930;2022-10-16T02:30:06;8.13;;;3.17;;
51913;SDS011;37940;53.002;6.930;2022-10-16T02:32:38;13.55;;;3.30;;
51913;SDS011;37940;53.002;6.930;2022-10-16T02:35:07;5.35;;;2.80;;
51913;SDS011;37940;53.002;6.930;2022-10-16T02:37:34;7.20;;;2.75;;
51913;SDS011;37940;53.002;6.930;2022-10-16T02:40:01;7.00;;;2.92;;
51913;SDS011;37940;53.002;6.930;2022-10-16T02:42:29;6.95;;;2.83;;
51913;SDS011;37940;53.002;6.930;2022-10-16T02:44:59;6.90;;;2.78;;
51913;SDS011;37940;53.002;6.930;2022-10-16T02:47:24;6.15;;;2.70;;
51913;SDS011;37940;53.002;6.930;2022-10-16T02:49:50;7.93;;;2.88;;
51913;SDS011;37940;53.002;6.930;2022-10-16T02:52:16;7.68;;;3.08;;
51913;SDS011;37940;53.002;6.930;2022-10-16T02:54:41;6.93;;;2.63;;
51913;SDS011;37940;53.002;6.930;2022-10-16T02:57:07;5.65;;;3.00;;
51913;SDS011;37940;53.002;6.930;2022-10-16T02:59:33;5.53;;;2.70;;
51913;SDS011;37940;53.002;6.930;2022-10-16T03:01:58;11.77;;;3.00;;
51913;SDS011;37940;53.002;6.930;2022-10-16T03:04:24;7.45;;;2.67;;
51913;SDS011;37940;53.002;6.930;2022-10-16T03:06:50;5.35;;;2.53;;
51913;SDS011;37940;53.002;6.930;2022-10-16T03:09:15;6.15;;;2.60;;
51913;SDS011;37940;53.002;6.930;2022-10-16T03:11:41;9.80;;;2.50;;
51913;SDS011;37940;53.002;6.930;2022-10-16T03:14:07;7.05;;;2.65;;
51913;SDS011;37940;53.002;6.930;2022-10-16T03:16:32;8.15;;;2.85;;
51913;SDS011;37940;53.002;6.930;2022-10-16T03:18:58;6.70;;;2.72;;
51913;SDS011;37940;53.002;6.930;2022-10-16T03:21:24;12.02;;;3.13;;
51913;SDS011;37940;53.002;6.930;2022-10-16T03:23:50;6.38;;;2.53;;
51913;SDS011;37940;53.002;6.930;2022-10-16T03:26:15;9.75;;;2.80;;
51913;SDS011;37940;53.002;6.930;2022-10-16T03:28:41;6.57;;;2.70;;
51913;SDS011;37940;53.002;6.930;2022-10-16T03:31:06;4.47;;;2.38;;
51913;SDS011;37940;53.002;6.930;2022-10-16T03:33:33;6.30;;;2.40;;
51913;SDS011;37940;53.002;6.930;2022-10-16T03:35:59;7.32;;;2.95;;
51913;SDS011;37940;53.002;6.930;2022-10-16T03:38:25;9.93;;;2.95;;
51913;SDS011;37940;53.002;6.930;2022-10-16T03:40:50;9.38;;;3.08;;
51913;SDS011;37940;53.002;6.930;2022-10-16T03:43:16;4.45;;;2.40;;
51913;SDS011;37940;53.002;6.930;2022-10-16T03:45:42;7.90;;;2.50;;
51913;SDS011;37940;53.002;6.930;2022-10-16T03:48:08;5.38;;;2.50;;
51913;SDS011;37940;53.002;6.930;2022-10-16T03:50:33;5.95;;;2.65;;
51913;SDS011;37940;53.002;6.930;2022-10-16T03:52:59;6.35;;;2.70;;
51913;SDS011;37940;53.002;6.930;2022-10-16T03:55:25;4.63;;;2.75;;
51913;SDS011;37940;53.002;6.930;2022-10-16T03:57:50;6.30;;;2.83;;
51913;SDS011;37940;53.002;6.930;2022-10-16T04:00:16;5.45;;;2.72;;
51913;SDS011;37940;53.002;6.930;2022-10-16T04:02:42;5.75;;;2.53;;
51913;SDS011;37940;53.002;6.930;2022-10-16T04:05:07;5.28;;;2.42;;
51913;SDS011;37940;53.002;6.930;2022-10-16T04:07:33;6.43;;;2.92;;
51913;SDS011;37940;53.002;6.930;2022-10-16T04:09:59;6.85;;;2.63;;
51913;SDS011;37940;53.002;6.930;2022-10-16T04:12:25;8.15;;;2.80;;
51913;SDS011;37940;53.002;6.930;2022-10-16T04:14:51;6.45;;;2.70;;
51913;SDS011;37940;53.002;6.930;2022-10-16T04:17:17;5.45;;;2.60;;
51913;SDS011;37940;53.002;6.930;2022-10-16T04:19:43;7.07;;;2.80;;
51913;SDS011;37940;53.002;6.930;2022-10-16T04:22:08;6.40;;;3.00;;
51913;SDS011;37940;53.002;6.930;2022-10-16T04:24:34;4.97;;;2.85;;
51913;SDS011;37940;53.002;6.930;2022-10-16T04:27:00;6.63;;;3.05;;
51913;SDS011;37940;53.002;6.930;2022-10-16T04:29:26;7.95;;;2.88;;
51913;SDS011;37940;53.002;6.930;2022-10-16T04:31:51;5.45;;;2.60;;
51913;SDS011;37940;53.002;6.930;2022-10-16T04:34:17;5.78;;;3.05;;
51913;SDS011;37940;53.002;6.930;2022-10-16T04:36:43;7.72;;;3.33;;
51913;SDS011;37940;53.002;6.930;2022-10-16T04:39:09;6.07;;;3.20;;
51913;SDS011;37940;53.002;6.930;2022-10-16T04:41:34;7.68;;;2.90;;
51913;SDS011;37940;53.002;6.930;2022-10-16T04:44:00;7.50;;;2.95;;
51913;SDS011;37940;53.002;6.930;2022-10-16T04:46:26;6.03;;;2.80;;
51913;SDS011;37940;53.002;6.930;2022-10-16T04:48:51;8.35;;;2.85;;
51913;SDS011;37940;53.002;6.930;2022-10-16T04:51:18;8.35;;;3.00;;
51913;SDS011;37940;53.002;6.930;2022-10-16T04:53:44;7.85;;;2.97;;
51913;SDS011;37940;53.002;6.930;2022-10-16T04:56:09;7.18;;;3.10;;
51913;SDS011;37940;53.002;6.930;2022-10-16T04:58:35;6.45;;;3.42;;
51913;SDS011;37940;53.002;6.930;2022-10-16T05:01:01;9.10;;;3.10;;
51913;SDS011;37940;53.002;6.930;2022-10-16T05:03:27;6.80;;;2.85;;
51913;SDS011;37940;53.002;6.930;2022-10-16T05:05:52;9.07;;;3.33;;
51913;SDS011;37940;53.002;6.930;2022-10-16T05:08:18;7.82;;;3.13;;
51913;SDS011;37940;53.002;6.930;2022-10-16T05:10:44;8.57;;;3.28;;
51913;SDS011;37940;53.002;6.930;2022-10-16T05:13:10;9.70;;;3.47;;
51913;SDS011;37940;53.002;6.930;2022-10-16T05:15:36;5.55;;;3.20;;
51913;SDS011;37940;53.002;6.930;2022-10-16T05:18:02;6.18;;;3.35;;
51913;SDS011;37940;53.002;6.930;2022-10-16T05:20:28;6.45;;;3.85;;
51913;SDS011;37940;53.002;6.930;2022-10-16T05:22:54;8.43;;;3.30;;
51913;SDS011;37940;53.002;6.930;2022-10-16T05:25:19;7.95;;;3.35;;
51913;SDS011;37940;53.002;6.930;2022-10-16T05:27:48;8.57;;;3.15;;
51913;SDS011;37940;53.002;6.930;2022-10-16T05:30:14;6.05;;;2.83;;
51913;SDS011;37940;53.002;6.930;2022-10-16T05:32:41;5.75;;;3.30;;
51913;SDS011;37940;53.002;6.930;2022-10-16T05:35:07;7.95;;;3.70;;
51913;SDS011;37940;53.002;6.930;2022-10-16T05:37:33;8.38;;;3.30;;
51913;SDS011;37940;53.002;6.930;2022-10-16T05:39:58;6.55;;;3.30;;
51913;SDS011;37940;53.002;6.930;2022-10-16T05:42:24;6.90;;;3.25;;
51913;SDS011;37940;53.002;6.930;2022-10-16T05:44:50;9.15;;;3.38;;
51913;SDS011;37940;53.002;6.930;2022-10-16T05:47:15;7.45;;;3.25;;
51913;SDS011;37940;53.002;6.930;2022-10-16T05:49:41;6.38;;;3.47;;
51913;SDS011;37940;53.002;6.930;2022-10-16T05:52:07;7.38;;;3.20;;
51913;SDS011;37940;53.002;6.930;2022-10-16T05:54:32;9.05;;;3.60;;
51913;SDS011;37940;53.002;6.930;2022-10-16T05:56:58;7.13;;;3.50;;
51913;SDS011;37940;53.002;6.930;2022-10-16T05:59:24;9.98;;;3.50;;
51913;SDS011;37940;53.002;6.930;2022-10-16T06:01:49;5.78;;;3.15;;
51913;SDS011;37940;53.002;6.930;2022-10-16T06:04:15;7.68;;;3.38;;
51913;SDS011;37940;53.002;6.930;2022-10-16T06:06:41;6.43;;;3.35;;
51913;SDS011;37940;53.002;6.930;2022-10-16T06:09:08;8.00;;;3.13;;
51913;SDS011;37940;53.002;6.930;2022-10-16T06:11:34;8.25;;;3.50;;
51913;SDS011;37940;53.002;6.930;2022-10-16T06:14:01;9.25;;;3.53;;
51913;SDS011;37940;53.002;6.930;2022-10-16T06:16:31;5.10;;;3.47;;
51913;SDS011;37940;53.002;6.930;2022-10-16T06:18:59;6.28;;;3.33;;
51913;SDS011;37940;53.002;6.930;2022-10-16T06:21:25;8.02;;;3.58;;
51913;SDS011;37940;53.002;6.930;2022-10-16T06:23:52;8.35;;;3.33;;
51913;SDS011;37940;53.002;6.930;2022-10-16T06:26:20;9.25;;;3.25;;
51913;SDS011;37940;53.002;6.930;2022-10-16T06:28:48;10.27;;;3.25;;
51913;SDS011;37940;53.002;6.930;2022-10-16T06:31:14;9.35;;;3.35;;
51913;SDS011;37940;53.002;6.930;2022-10-16T06:33:40;7.88;;;3.13;;
51913;SDS011;37940;53.002;6.930;2022-10-16T06:36:08;7.18;;;3.00;;
51913;SDS011;37940;53.002;6.930;2022-10-16T06:38:38;5.85;;;3.05;;
51913;SDS011;37940;53.002;6.930;2022-10-16T06:41:04;8.40;;;2.63;;
51913;SDS011;37940;53.002;6.930;2022-10-16T06:43:31;12.77;;;3.92;;
51913;SDS011;37940;53.002;6.930;2022-10-16T06:45:58;7.65;;;3.13;;
51913;SDS011;37940;53.002;6.930;2022-10-16T06:48:25;8.05;;;2.80;;
51913;SDS011;37940;53.002;6.930;2022-10-16T06:51:01;6.10;;;2.58;;
51913;SDS011;37940;53.002;6.930;2022-10-16T06:53:28;7.13;;;2.75;;
51913;SDS011;37940;53.002;6.930;2022-10-16T06:55:56;6.10;;;2.85;;
51913;SDS011;37940;53.002;6.930;2022-10-16T06:58:22;4.45;;;2.50;;
51913;SDS011;37940;53.002;6.930;2022-10-16T07:00:48;7.78;;;2.80;;
51913;SDS011;37940;53.002;6.930;2022-10-16T07:03:14;7.32;;;2.90;;
51913;SDS011;37940;53.002;6.930;2022-10-16T07:05:41;6.45;;;2.75;;
51913;SDS011;37940;53.002;6.930;2022-10-16T07:08:07;7.32;;;2.83;;
51913;SDS011;37940;53.002;6.930;2022-10-16T07:10:33;4.95;;;2.50;;
51913;SDS011;37940;53.002;6.930;2022-10-16T07:12:59;5.53;;;2.55;;
51913;SDS011;37940;53.002;6.930;2022-10-16T07:15:25;5.72;;;2.47;;
51913;SDS011;37940;53.002;6.930;2022-10-16T07:17:51;6.20;;;2.58;;
51913;SDS011;37940;53.002;6.930;2022-10-16T07:20:17;10.13;;;3.10;;
51913;SDS011;37940;53.002;6.930;2022-10-16T07:22:43;7.00;;;2.60;;
51913;SDS011;37940;53.002;6.930;2022-10-16T07:25:09;9.20;;;2.40;;
51913;SDS011;37940;53.002;6.930;2022-10-16T07:27:36;4.32;;;2.35;;
51913;SDS011;37940;53.002;6.930;2022-10-16T07:30:02;8.15;;;2.67;;
51913;SDS011;37940;53.002;6.930;2022-10-16T07:32:28;5.85;;;2.20;;
51913;SDS011;37940;53.002;6.930;2022-10-16T07:34:54;9.95;;;2.97;;
51913;SDS011;37940;53.002;6.930;2022-10-16T07:37:20;6.55;;;2.40;;
51913;SDS011;37940;53.002;6.930;2022-10-16T07:39:47;8.45;;;2.58;;
51913;SDS011;37940;53.002;6.930;2022-10-16T07:42:12;7.38;;;2.42;;
51913;SDS011;37940;53.002;6.930;2022-10-16T07:44:38;7.75;;;2.67;;
51913;SDS011;37940;53.002;6.930;2022-10-16T07:47:05;7.07;;;2.40;;
51913;SDS011;37940;53.002;6.930;2022-10-16T07:49:30;7.90;;;2.40;;
51913;SDS011;37940;53.002;6.930;2022-10-16T07:51:56;5.53;;;2.53;;
51913;SDS011;37940;53.002;6.930;2022-10-16T07:54:22;6.22;;;2.60;;
51913;SDS011;37940;53.002;6.930;2022-10-16T07:56:48;5.78;;;2.42;;
51913;SDS011;37940;53.002;6.930;2022-10-16T07:59:13;5.80;;;2.20;;
51913;SDS011;37940;53.002;6.930;2022-10-16T08:01:39;6.20;;;2.42;;
51913;SDS011;37940;53.002;6.930;2022-10-16T08:04:07;6.25;;;2.28;;
51913;SDS011;37940;53.002;6.930;2022-10-16T08:06:37;6.10;;;2.10;;
51913;SDS011;37940;53.002;6.930;2022-10-16T08:09:04;7.60;;;2.50;;
51913;SDS011;37940;53.002;6.930;2022-10-16T08:11:31;5.40;;;2.20;;
51913;SDS011;37940;53.002;6.930;2022-10-16T08:13:57;5.22;;;2.20;;
51913;SDS011;37940;53.002;6.930;2022-10-16T08:16:22;5.18;;;2.22;;
51913;SDS011;37940;53.002;6.930;2022-10-16T08:18:48;8.63;;;2.58;;
51913;SDS011;37940;53.002;6.930;2022-10-16T08:21:18;6.28;;;2.20;;
51913;SDS011;37940;53.002;6.930;2022-10-16T08:23:45;6.05;;;2.08;;
51913;SDS011;37940;53.002;6.930;2022-10-16T08:26:11;7.35;;;2.38;;
51913;SDS011;37940;53.002;6.930;2022-10-16T08:28:37;7.10;;;2.40;;
51913;SDS011;37940;53.002;6.930;2022-10-16T08:31:04;6.22;;;2.47;;
51913;SDS011;37940;53.002;6.930;2022-10-16T08:33:41;5.93;;;2.25;;
51913;SDS011;37940;53.002;6.930;2022-10-16T08:36:09;8.00;;;2.60;;
51913;SDS011;37940;53.002;6.930;2022-10-16T08:38:35;5.00;;;2.05;;
51913;SDS011;37940;53.002;6.930;2022-10-16T08:49:37;4.25;;;2.00;;
51913;SDS011;37940;53.002;6.930;2022-10-16T08:52:12;6.40;;;1.98;;
51913;SDS011;37940;53.002;6.930;2022-10-16T08:54:42;8.43;;;2.28;;
51913;SDS011;37940;53.002;6.930;2022-10-16T08:59:39;3.70;;;1.52;;
51913;SDS011;37940;53.002;6.930;2022-10-16T09:02:15;5.82;;;1.83;;
51913;SDS011;37940;53.002;6.930;2022-10-16T09:05:15;4.90;;;1.77;;
51913;SDS011;37940;53.002;6.930;2022-10-16T09:08:08;5.15;;;1.77;;
51913;SDS011;37940;53.002;6.930;2022-10-16T09:13:28;4.72;;;1.70;;
51913;SDS011;37940;53.002;6.930;2022-10-16T09:16:07;4.90;;;2.03;;
51913;SDS011;37940;53.002;6.930;2022-10-16T09:21:31;4.40;;;1.92;;
51913;SDS011;37940;53.002;6.930;2022-10-16T09:24:13;5.22;;;1.95;;
51913;SDS011;37940;53.002;6.930;2022-10-16T09:26:41;5.97;;;2.00;;
51913;SDS011;37940;53.002;6.930;2022-10-16T09:29:14;7.07;;;1.90;;
51913;SDS011;37940;53.002;6.930;2022-10-16T09:31:42;7.40;;;2.03;;
51913;SDS011;37940;53.002;6.930;2022-10-16T09:34:18;6.15;;;2.10;;
51913;SDS011;37940;53.002;6.930;2022-10-16T09:36:55;5.78;;;2.00;;
51913;SDS011;37940;53.002;6.930;2022-10-16T09:39:24;6.63;;;1.88;;
51913;SDS011;37940;53.002;6.930;2022-10-16T09:41:50;6.10;;;2.55;;
51913;SDS011;37940;53.002;6.930;2022-10-16T09:44:24;9.55;;;2.40;;
51913;SDS011;37940;53.002;6.930;2022-10-16T09:47:05;5.90;;;1.92;;
51913;SDS011;37940;53.002;6.930;2022-10-16T09:49:37;7.28;;;1.83;;
51913;SDS011;37940;53.002;6.930;2022-10-16T09:52:04;10.02;;;2.30;;
51913;SDS011;37940;53.002;6.930;2022-10-16T09:57:18;8.90;;;2.15;;
51913;SDS011;37940;53.002;6.930;2022-10-16T09:59:54;8.50;;;2.20;;
51913;SDS011;37940;53.002;6.930;2022-10-16T10:02:34;11.60;;;2.50;;
51913;SDS011;37940;53.002;6.930;2022-10-16T10:05:04;7.53;;;2.10;;
51913;SDS011;37940;53.002;6.930;2022-10-16T10:07:42;7.95;;;1.90;;
51913;SDS011;37940;53.002;6.930;2022-10-16T10:10:19;7.20;;;1.98;;
51913;SDS011;37940;53.002;6.930;2022-10-16T10:12:50;11.77;;;2.30;;
51913;SDS011;37940;53.002;6.930;2022-10-16T10:15:16;12.38;;;2.60;;
51913;SDS011;37940;53.002;6.930;2022-10-16T10:17:53;10.38;;;1.90;;
51913;SDS011;37940;53.002;6.930;2022-10-16T10:22:52;8.30;;;2.10;;
51913;SDS011;37940;53.002;6.930;2022-10-16T10:30:51;10.15;;;2.40;;
51913;SDS011;37940;53.002;6.930;2022-10-16T10:41:37;10.35;;;2.40;;
51913;SDS011;37940;53.002;6.930;2022-10-16T10:44:29;13.18;;;2.60;;
51913;SDS011;37940;53.002;6.930;2022-10-16T10:50:22;7.43;;;2.10;;
51913;SDS011;37940;53.002;6.930;2022-10-16T10:52:56;11.10;;;2.38;;
51913;SDS011;37940;53.002;6.930;2022-10-16T11:00:54;10.27;;;2.10;;
51913;SDS011;37940;53.002;6.930;2022-10-16T11:06:39;11.10;;;2.45;;
51913;SDS011;37940;53.002;6.930;2022-10-16T11:09:20;10.25;;;2.17;;
51913;SDS011;37940;53.002;6.930;2022-10-16T11:11:58;10.48;;;2.55;;
51913;SDS011;37940;53.002;6.930;2022-10-16T11:17:39;11.40;;;2.15;;
51913;SDS011;37940;53.002;6.930;2022-10-16T11:20:26;7.03;;;1.75;;
51913;SDS011;37940;53.002;6.930;2022-10-16T11:23:08;9.45;;;2.28;;
51913;SDS011;37940;53.002;6.930;2022-10-16T11:25:41;9.53;;;2.20;;
51913;SDS011;37940;53.002;6.930;2022-10-16T11:28:19;8.35;;;2.17;;
51913;SDS011;37940;53.002;6.930;2022-10-16T11:30:57;10.30;;;2.63;;
51913;SDS011;37940;53.002;6.930;2022-10-16T11:33:40;10.50;;;2.20;;
51913;SDS011;37940;53.002;6.930;2022-10-16T11:36:14;11.80;;;2.20;;
51913;SDS011;37940;53.002;6.930;2022-10-16T11:50:06;9.32;;;2.20;;
51913;SDS011;37940;53.002;6.930;2022-10-16T11:53:03;7.07;;;2.13;;
51913;SDS011;37940;53.002;6.930;2022-10-16T11:55:42;8.73;;;2.13;;
51913;SDS011;37940;53.002;6.930;2022-10-16T11:58:28;12.00;;;2.63;;
51913;SDS011;37940;53.002;6.930;2022-10-16T12:03:55;8.30;;;2.30;;
51913;SDS011;37940;53.002;6.930;2022-10-16T12:06:37;10.18;;;2.38;;
51913;SDS011;37940;53.002;6.930;2022-10-16T12:09:13;10.77;;;2.25;;
51913;SDS011;37940;53.002;6.930;2022-10-16T12:11:54;12.63;;;2.58;;
51913;SDS011;37940;53.002;6.930;2022-10-16T12:14:34;9.65;;;2.22;;
51913;SDS011;37940;53.002;6.930;2022-10-16T12:17:03;8.38;;;2.30;;
51913;SDS011;37940;53.002;6.930;2022-10-16T12:22:40;10.35;;;2.00;;
51913;SDS011;37940;53.002;6.930;2022-10-16T12:25:22;10.20;;;2.20;;
51913;SDS011;37940;53.002;6.930;2022-10-16T12:27:54;9.43;;;2.40;;
51913;SDS011;37940;53.002;6.930;2022-10-16T12:30:57;10.43;;;2.20;;
51913;SDS011;37940;53.002;6.930;2022-10-16T12:33:35;7.93;;;2.20;;
51913;SDS011;37940;53.002;6.930;2022-10-16T12:36:11;14.02;;;2.47;;
51913;SDS011;37940;53.002;6.930;2022-10-16T12:38:50;10.45;;;2.30;;
51913;SDS011;37940;53.002;6.930;2022-10-16T12:41:27;10.50;;;2.63;;
51913;SDS011;37940;53.002;6.930;2022-10-16T12:43:53;10.63;;;2.33;;
51913;SDS011;37940;53.002;6.930;2022-10-16T12:46:21;8.10;;;2.30;;
51913;SDS011;37940;53.002;6.930;2022-10-16T12:48:53;7.40;;;2.08;;
51913;SDS011;37940;53.002;6.930;2022-10-16T12:51:39;15.10;;;2.70;;
51913;SDS011;37940;53.002;6.930;2022-10-16T12:56:38;8.70;;;2.25;;
51913;SDS011;37940;53.002;6.930;2022-10-16T13:01:52;10.40;;;2.35;;
51913;SDS011;37940;53.002;6.930;2022-10-16T13:10:12;12.50;;;2.55;;
51913;SDS011;37940;53.002;6.930;2022-10-16T13:18:38;10.23;;;2.33;;
51913;SDS011;37940;53.002;6.930;2022-10-16T13:27:06;8.82;;;2.33;;
51913;SDS011;37940;53.002;6.930;2022-10-16T13:29:54;10.52;;;2.45;;
51913;SDS011;37940;53.002;6.930;2022-10-16T13:32:28;8.48;;;2.20;;
51913;SDS011;37940;53.002;6.930;2022-10-16T13:34:55;9.45;;;2.38;;
51913;SDS011;37940;53.002;6.930;2022-10-16T13:37:22;8.52;;;2.00;;
51913;SDS011;37940;53.002;6.930;2022-10-16T13:39:49;8.85;;;2.35;;
51913;SDS011;37940;53.002;6.930;2022-10-16T13:42:23;8.73;;;2.10;;
51913;SDS011;37940;53.002;6.930;2022-10-16T13:44:52;9.50;;;2.22;;
51913;SDS011;37940;53.002;6.930;2022-10-16T13:47:22;10.48;;;2.38;;
51913;SDS011;37940;53.002;6.930;2022-10-16T13:50:02;12.25;;;2.35;;
51913;SDS011;37940;53.002;6.930;2022-10-16T13:52:36;11.63;;;2.50;;
51913;SDS011;37940;53.002;6.930;2022-10-16T13:55:03;7.55;;;1.83;;
51913;SDS011;37940;53.002;6.930;2022-10-16T13:57:35;9.68;;;2.10;;
51913;SDS011;37940;53.002;6.930;2022-10-16T14:00:00;8.82;;;1.75;;
51913;SDS011;37940;53.002;6.930;2022-10-16T14:02:37;9.75;;;2.58;;
51913;SDS011;37940;53.002;6.930;2022-10-16T14:05:07;11.13;;;2.50;;
51913;SDS011;37940;53.002;6.930;2022-10-16T14:07:35;11.27;;;2.28;;
51913;SDS011;37940;53.002;6.930;2022-10-16T14:10:03;9.52;;;2.20;;
51913;SDS011;37940;53.002;6.930;2022-10-16T14:12:31;8.68;;;2.10;;
51913;SDS011;37940;53.002;6.930;2022-10-16T14:14:58;10.45;;;2.15;;
51913;SDS011;37940;53.002;6.930;2022-10-16T14:17:28;10.80;;;2.30;;
51913;SDS011;37940;53.002;6.930;2022-10-16T14:19:57;11.00;;;2.20;;
51913;SDS011;37940;53.002;6.930;2022-10-16T14:22:32;10.25;;;2.10;;
51913;SDS011;37940;53.002;6.930;2022-10-16T14:30:48;12.20;;;2.75;;
51913;SDS011;37940;53.002;6.930;2022-10-16T14:33:31;13.00;;;2.47;;
51913;SDS011;37940;53.002;6.930;2022-10-16T14:36:33;10.50;;;2.70;;
51913;SDS011;37940;53.002;6.930;2022-10-16T14:41:23;11.45;;;2.40;;
51913;SDS011;37940;53.002;6.930;2022-10-16T14:43:50;8.40;;;1.95;;
51913;SDS011;37940;53.002;6.930;2022-10-16T14:46:21;10.23;;;2.20;;
51913;SDS011;37940;53.002;6.930;2022-10-16T14:48:56;10.77;;;2.38;;
51913;SDS011;37940;53.002;6.930;2022-10-16T14:51:36;9.15;;;2.20;;
51913;SDS011;37940;53.002;6.930;2022-10-16T14:54:03;8.32;;;2.22;;
51913;SDS011;37940;53.002;6.930;2022-10-16T14:56:30;12.07;;;2.80;;
51913;SDS011;37940;53.002;6.930;2022-10-16T14:59:00;11.02;;;2.20;;
51913;SDS011;37940;53.002;6.930;2022-10-16T15:01:27;10.13;;;2.67;;
51913;SDS011;37940;53.002;6.930;2022-10-16T15:03:53;11.95;;;2.50;;
51913;SDS011;37940;53.002;6.930;2022-10-16T15:06:20;7.90;;;2.30;;
51913;SDS011;37940;53.002;6.930;2022-10-16T15:08:46;12.32;;;2.50;;
51913;SDS011;37940;53.002;6.930;2022-10-16T15:11:15;10.38;;;2.22;;
51913;SDS011;37940;53.002;6.930;2022-10-16T15:13:43;9.43;;;1.98;;
51913;SDS011;37940;53.002;6.930;2022-10-16T15:16:12;10.52;;;2.45;;
51913;SDS011;37940;53.002;6.930;2022-10-16T15:18:41;12.30;;;3.00;;
51913;SDS011;37940;53.002;6.930;2022-10-16T15:21:07;12.10;;;2.63;;
51913;SDS011;37940;53.002;6.930;2022-10-16T15:23:33;10.57;;;2.15;;
51913;SDS011;37940;53.002;6.930;2022-10-16T15:25:59;8.50;;;2.10;;
51913;SDS011;37940;53.002;6.930;2022-10-16T15:28:25;12.05;;;2.72;;
51913;SDS011;37940;53.002;6.930;2022-10-16T15:30:51;12.57;;;2.58;;
51913;SDS011;37940;53.002;6.930;2022-10-16T15:33:19;17.00;;;3.55;;
51913;SDS011;37940;53.002;6.930;2022-10-16T15:35:48;10.65;;;2.92;;
51913;SDS011;37940;53.002;6.930;2022-10-16T15:38:15;11.02;;;2.47;;
51913;SDS011;37940;53.002;6.930;2022-10-16T15:40:41;13.40;;;2.55;;
51913;SDS011;37940;53.002;6.930;2022-10-16T15:43:07;12.00;;;2.60;;
51913;SDS011;37940;53.002;6.930;2022-10-16T15:45:33;13.38;;;2.63;;
51913;SDS011;37940;53.002;6.930;2022-10-16T15:47:59;12.50;;;3.15;;
51913;SDS011;37940;53.002;6.930;2022-10-16T15:50:25;15.20;;;3.10;;
51913;SDS011;37940;53.002;6.930;2022-10-16T15:52:51;15.20;;;3.20;;
51913;SDS011;37940;53.002;6.930;2022-10-16T15:55:17;9.82;;;3.28;;
51913;SDS011;37940;53.002;6.930;2022-10-16T15:57:43;14.02;;;2.80;;
51913;SDS011;37940;53.002;6.930;2022-10-16T16:00:14;11.18;;;2.83;;
51913;SDS011;37940;53.002;6.930;2022-10-16T16:02:42;11.48;;;3.83;;
51913;SDS011;37940;53.002;6.930;2022-10-16T16:05:09;16.42;;;4.88;;
51913;SDS011;37940;53.002;6.930;2022-10-16T16:07:36;12.85;;;3.95;;
51913;SDS011;37940;53.002;6.930;2022-10-16T16:10:03;13.13;;;2.92;;
51913;SDS011;37940;53.002;6.930;2022-10-16T16:12:31;11.27;;;3.65;;
51913;SDS011;37940;53.002;6.930;2022-10-16T16:14:57;12.77;;;3.30;;
51913;SDS011;37940;53.002;6.930;2022-10-16T16:17:22;13.85;;;3.83;;
51913;SDS011;37940;53.002;6.930;2022-10-16T16:19:49;11.68;;;3.20;;
51913;SDS011;37940;53.002;6.930;2022-10-16T16:22:15;11.48;;;3.10;;
51913;SDS011;37940;53.002;6.930;2022-10-16T16:24:41;13.85;;;3.80;;
51913;SDS011;37940;53.002;6.930;2022-10-16T16:27:07;14.48;;;3.40;;
51913;SDS011;37940;53.002;6.930;2022-10-16T16:29:33;15.43;;;3.60;;
51913;SDS011;37940;53.002;6.930;2022-10-16T16:31:59;19.10;;;3.60;;
51913;SDS011;37940;53.002;6.930;2022-10-16T16:34:25;13.23;;;3.45;;
51913;SDS011;37940;53.002;6.930;2022-10-16T16:36:52;15.05;;;4.68;;
51913;SDS011;37940;53.002;6.930;2022-10-16T16:39:18;14.80;;;7.85;;
51913;SDS011;37940;53.002;6.930;2022-10-16T16:41:44;21.05;;;7.68;;
51913;SDS011;37940;53.002;6.930;2022-10-16T16:44:10;29.60;;;10.38;;
51913;SDS011;37940;53.002;6.930;2022-10-16T16:46:37;25.33;;;8.98;;
51913;SDS011;37940;53.002;6.930;2022-10-16T16:49:05;28.52;;;9.10;;
51913;SDS011;37940;53.002;6.930;2022-10-16T16:51:31;38.15;;;10.95;;